createdAt,value
2019-04-20T00:01:31.724Z,102283.45
2019-04-20T00:03:59.323Z,102280.20
2019-04-20T00:06:31.667Z,102281.77
2019-04-20T00:09:10.335Z,102282.91
2019-04-20T00:11:49.391Z,102285.53
2019-04-20T00:14:15.402Z,102283.38
2019-04-20T00:16:42.026Z,102282.15
2019-04-20T00:19:17.327Z,102289.23
2019-04-20T00:21:56.429Z,102278.38
2019-04-20T00:24:33.635Z,102279.20
2019-04-20T00:27:22.136Z,102279.74
2019-04-20T00:29:52.381Z,102277.75
2019-04-20T00:32:18.869Z,102278.34
2019-04-20T00:34:43.636Z,102272.16
2019-04-20T00:37:12.941Z,102270.23
2019-04-20T00:39:44.761Z,102268.99
2019-04-20T00:42:17.885Z,102270.55
2019-04-20T00:44:57.633Z,102270.43
2019-04-20T00:47:34.210Z,102268.38
2019-04-20T00:50:06.568Z,102260.09
2019-04-20T00:52:45.226Z,102266.53
2019-04-20T00:55:00.123Z,102268.06
2019-04-20T00:57:41.784Z,102265.98
2019-04-20T01:00:23.109Z,102269.30
2019-04-20T01:02:49.524Z,102271.39
2019-04-20T01:05:37.898Z,102263.59
2019-04-20T01:08:09.435Z,102266.05
2019-04-20T01:10:47.266Z,102265.80
2019-04-20T01:13:19.815Z,102269.66
2019-04-20T01:15:55.167Z,102265.72
2019-04-20T01:18:20.057Z,102270.73
2019-04-20T01:20:51.460Z,102262.67
2019-04-20T01:23:29.128Z,102268.56
2019-04-20T01:26:01.831Z,102264.13
2019-04-20T01:28:47.402Z,102271.47
2019-04-20T01:31:17.757Z,102269.86
2019-04-20T01:33:49.196Z,102273.22
2019-04-20T01:36:35.079Z,102273.45
2019-04-20T01:38:57.839Z,102269.58
2019-04-20T01:41:18.220Z,102274.64
2019-04-20T01:43:50.191Z,102272.98
2019-04-20T01:46:28.025Z,102281.20
2019-04-20T01:49:00.201Z,102282.19
2019-04-20T01:51:37.331Z,102285.66
2019-04-20T01:54:26.092Z,102284.31
2019-04-20T01:56:58.058Z,102283.17
2019-04-20T01:59:44.055Z,102284.71
2019-04-20T02:02:24.463Z,102285.20
2019-04-20T02:05:11.357Z,102280.87
2019-04-20T02:07:40.000Z,102288.11
2019-04-20T02:10:09.780Z,102282.75
2019-04-20T02:12:42.279Z,102288.28
2019-04-20T02:15:20.052Z,102289.75
2019-04-20T02:17:59.359Z,102293.12
2019-04-20T02:20:37.597Z,102299.91
2019-04-20T02:23:06.562Z,102297.34
2019-04-20T02:25:24.925Z,102296.94
2019-04-20T02:28:14.783Z,102298.77
2019-04-20T02:31:10.484Z,102292.58
2019-04-20T02:33:47.422Z,102300.02
2019-04-20T02:36:25.070Z,102299.67
2019-04-20T02:41:57.531Z,102300.34
2019-04-20T02:46:55.686Z,102298.72
2019-04-20T02:49:33.126Z,102300.06
2019-04-20T02:51:55.906Z,102295.16
2019-04-20T02:57:05.326Z,102301.11
2019-04-20T02:59:54.057Z,102295.96
2019-04-20T03:01:55.231Z,102304.23
2019-04-20T03:04:20.247Z,102301.56
2019-04-20T03:07:01.037Z,102300.30
2019-04-20T03:09:36.211Z,102300.30
2019-04-20T03:12:10.846Z,102304.89
2019-04-20T03:14:35.218Z,102304.50
2019-04-20T03:17:15.538Z,102296.03
2019-04-20T03:19:40.902Z,102300.22
2019-04-20T03:22:24.645Z,102295.88
2019-04-20T03:24:54.017Z,102297.25
2019-04-20T03:27:46.208Z,102292.34
2019-04-20T03:33:44.584Z,102301.05
2019-04-20T03:36:07.936Z,102302.11
2019-04-20T03:38:26.288Z,102308.41
2019-04-20T03:40:50.693Z,102305.80
2019-04-20T03:43:12.287Z,102312.51
2019-04-20T03:45:51.756Z,102310.31
2019-04-20T03:48:35.902Z,102304.59
2019-04-20T03:51:07.283Z,102309.23
2019-04-20T03:53:43.566Z,102310.30
2019-04-20T03:56:34.392Z,102311.72
2019-04-20T03:59:20.182Z,102308.17
2019-04-20T04:02:25.173Z,102312.27
2019-04-20T04:05:03.332Z,102311.45
2019-04-20T04:07:19.543Z,102311.03
2019-04-20T04:10:02.470Z,102316.55
2019-04-20T04:13:09.602Z,102312.53
2019-04-20T04:15:48.765Z,102312.61
2019-04-20T04:18:23.009Z,102306.95
2019-04-20T04:20:54.071Z,102308.69
2019-04-20T04:23:36.671Z,102310.52
2019-04-20T04:26:08.513Z,102307.42
2019-04-20T04:28:43.302Z,102311.58
2019-04-20T04:31:22.953Z,102314.75
2019-04-20T04:33:59.354Z,102317.44
2019-04-20T04:36:20.842Z,102322.80
2019-04-20T04:39:05.449Z,102329.53
2019-04-20T04:41:31.079Z,102326.92
2019-04-20T04:44:04.510Z,102331.84
2019-04-20T04:48:49.221Z,102334.47
2019-04-20T04:56:21.451Z,102339.83
2019-04-20T05:02:03.375Z,102338.61
2019-04-20T05:04:58.510Z,102335.42
2019-04-20T05:07:23.021Z,102336.38
2019-04-20T05:12:21.492Z,102340.41
2019-04-20T05:22:39.758Z,102346.66
2019-04-20T05:30:33.606Z,102353.55
2019-04-20T05:33:09.162Z,102347.67
2019-04-20T05:36:00.912Z,102350.28
2019-04-20T05:38:39.779Z,102343.05
2019-04-20T05:41:04.626Z,102340.70
2019-04-20T05:43:38.605Z,102344.22
2019-04-20T05:46:18.407Z,102349.45
2019-04-20T05:48:53.246Z,102339.92
2019-04-20T05:51:26.907Z,102340.30
2019-04-20T05:54:01.140Z,102340.12
2019-04-20T05:56:33.074Z,102341.28
2019-04-20T05:58:59.907Z,102345.94
2019-04-20T06:01:42.480Z,102340.78
2019-04-20T06:04:01.650Z,102341.89
2019-04-20T06:06:40.411Z,102345.70
2019-04-20T06:09:21.038Z,102342.67
2019-04-20T06:11:56.280Z,102344.63
2019-04-20T06:14:19.391Z,102337.48
2019-04-20T06:17:10.805Z,102345.21
2019-04-20T06:19:39.240Z,102342.52
2019-04-20T06:53:41.205Z,102339.44
2019-04-20T06:56:36.791Z,102334.13
2019-04-20T07:02:03.947Z,102336.20
2019-04-20T07:07:10.166Z,102340.62
2019-04-20T07:14:32.891Z,102343.50
2019-04-20T07:22:46.357Z,102345.50
2019-04-20T07:30:24.111Z,102338.34
2019-04-20T07:35:30.450Z,102336.11
2019-04-20T07:40:28.801Z,102333.38
2019-04-20T07:43:14.645Z,102339.88
2019-04-20T07:46:11.743Z,102338.78
2019-04-20T07:48:36.872Z,102337.25
2019-04-20T07:51:04.827Z,102334.66
2019-04-20T07:53:42.174Z,102337.78
2019-04-20T07:56:25.377Z,102331.20
2019-04-20T07:58:41.388Z,102333.25
2019-04-20T08:01:43.129Z,102334.23
2019-04-20T08:22:02.498Z,102322.18
2019-04-20T08:28:39.172Z,102314.42
2019-04-20T08:31:32.277Z,102317.24
2019-04-20T08:36:57.108Z,102308.64
2019-04-20T08:42:24.779Z,102307.67
2019-04-20T08:45:08.369Z,102308.06
2019-04-20T08:47:45.863Z,102304.35
2019-04-20T08:53:17.360Z,102300.18
2019-04-20T09:00:19.144Z,102304.11
2019-04-20T09:05:30.276Z,102294.12
2019-04-20T09:18:17.848Z,102285.08
2019-04-20T09:23:36.373Z,102280.76
2019-04-20T09:26:14.943Z,102288.66
2019-04-20T09:32:33.254Z,102284.34
2019-04-20T09:42:47.026Z,102283.29
2019-04-20T09:45:31.139Z,102280.23
2019-04-20T09:47:57.115Z,102281.51
2019-04-20T09:53:17.328Z,102271.31
2019-04-20T09:58:12.580Z,102267.21
2019-04-20T10:03:16.722Z,102266.05
2019-04-20T10:08:21.873Z,102265.04
2019-04-20T10:13:25.075Z,102263.20
2019-04-20T10:21:09.653Z,102255.31
2019-04-20T10:23:48.235Z,102247.44
2019-04-20T10:26:22.759Z,102246.38
2019-04-20T10:28:57.377Z,102247.33
2019-04-20T10:31:48.296Z,102245.42
2019-04-20T10:34:15.697Z,102243.17
2019-04-20T10:37:09.376Z,102244.92
2019-04-20T10:42:14.380Z,102244.53
2019-04-20T10:47:15.230Z,102237.54
2019-04-20T10:52:17.857Z,102238.03
2019-04-20T10:54:50.260Z,102235.16
2019-04-20T10:57:21.674Z,102232.69
2019-04-20T10:59:59.388Z,102224.59
2019-04-20T11:02:35.133Z,102235.94
2019-04-20T11:05:08.559Z,102227.69
2019-04-20T11:11:01.300Z,102225.24
2019-04-20T11:13:46.119Z,102218.20
2019-04-20T11:16:24.703Z,102212.27
2019-04-20T11:19:01.043Z,102211.64
2019-04-20T11:21:34.354Z,102204.93
2019-04-20T11:24:08.170Z,102202.01
2019-04-20T11:26:41.445Z,102199.37
2019-04-20T11:29:16.122Z,102202.48
2019-04-20T11:31:51.536Z,102204.05
2019-04-20T11:34:28.615Z,102195.12
2019-04-20T11:36:52.986Z,102196.75
2019-04-20T11:39:25.029Z,102197.39
2019-04-20T11:41:56.194Z,102185.73
2019-04-20T11:46:58.723Z,102194.62
2019-04-20T11:49:31.064Z,102178.86
2019-04-20T11:52:03.613Z,102177.92
2019-04-20T11:54:34.993Z,102181.93
2019-04-20T11:57:09.018Z,102176.95
2019-04-20T11:59:39.338Z,102180.73
2019-04-20T12:02:47.886Z,102178.73
2019-04-20T12:05:28.136Z,102170.68
2019-04-20T12:08:03.008Z,102159.31
2019-04-20T12:13:14.454Z,102153.35
2019-04-20T12:20:58.857Z,102152.89
2019-04-20T12:28:43.373Z,102144.70
2019-04-20T12:34:11.013Z,102143.74
2019-04-20T12:39:31.407Z,102137.17
2019-04-20T12:44:32.112Z,102137.50
2019-04-20T12:49:37.862Z,102124.94
2019-04-20T12:52:10.359Z,102121.80
2019-04-20T12:54:44.527Z,102124.52
2019-04-20T12:59:47.830Z,102118.99
2019-04-20T13:02:19.672Z,102119.78
2019-04-20T13:04:55.400Z,102104.32
2019-04-20T13:09:54.837Z,102105.13
2019-04-20T13:12:32.233Z,102113.72
2019-04-20T13:15:26.649Z,102111.70
2019-04-20T13:17:58.936Z,102104.75
2019-04-20T13:20:30.324Z,102102.14
2019-04-20T13:23:03.666Z,102097.23
2019-04-20T13:25:35.012Z,102093.42
2019-04-20T13:28:07.358Z,102091.03
2019-04-20T13:30:39.769Z,102086.69
2019-04-20T13:33:12.125Z,102090.85
2019-04-20T13:35:44.195Z,102082.87
2019-04-20T13:38:16.224Z,102095.66
2019-04-20T13:43:17.605Z,102084.44
2019-04-20T13:48:21.306Z,102068.67
2019-04-20T13:53:23.398Z,102061.10
2019-04-20T13:55:56.033Z,102064.53
2019-04-20T13:58:45.712Z,102057.25
2019-04-20T14:01:34.796Z,102058.71
2019-04-20T14:04:05.352Z,102059.67
2019-04-20T14:06:57.656Z,102057.78
2019-04-20T14:09:30.654Z,102051.17
2019-04-20T14:14:33.105Z,102046.96
2019-04-20T14:19:34.827Z,102051.03
2019-04-20T14:22:11.292Z,102045.73
2019-04-20T14:27:12.991Z,102038.92
2019-04-20T14:29:46.298Z,102033.09
2019-04-20T14:32:18.816Z,102027.88
2019-04-20T14:34:51.198Z,102033.14
2019-04-20T14:37:24.800Z,102035.42
2019-04-20T14:39:59.041Z,102030.95
2019-04-20T14:42:40.380Z,102029.70
2019-04-20T14:45:04.785Z,102026.45
2019-04-20T14:47:36.176Z,102022.87
2019-04-20T14:50:07.633Z,102016.69
2019-04-20T14:52:39.695Z,102017.72
2019-04-20T14:57:41.480Z,102018.88
2019-04-20T15:00:37.958Z,102014.22
2019-04-20T15:03:10.126Z,102019.06
2019-04-20T15:10:40.583Z,102006.86
2019-04-20T15:13:14.891Z,102006.78
2019-04-20T15:18:15.555Z,102009.13
2019-04-20T15:23:15.732Z,102003.53
2019-04-20T15:28:18.657Z,101996.45
2019-04-20T15:33:28.256Z,101994.30
2019-04-20T15:36:04.236Z,101993.93
2019-04-20T15:38:35.589Z,101996.09
2019-04-20T15:41:08.762Z,101982.92
2019-04-20T15:43:39.647Z,101988.80
2019-04-20T15:48:40.240Z,101992.45
2019-04-20T15:51:14.020Z,101985.36
2019-04-20T15:53:47.429Z,101987.22
2019-04-20T15:58:52.428Z,101981.23
2019-04-20T16:01:28.178Z,101991.98
2019-04-20T16:06:31.582Z,101983.74
2019-04-20T16:11:35.170Z,101982.48
2019-04-20T16:14:07.267Z,101978.49
2019-04-20T16:16:38.464Z,101979.74
2019-04-20T16:19:25.233Z,101974.11
2019-04-20T16:21:43.678Z,101975.98
2019-04-20T16:24:18.975Z,101978.49
2019-04-20T16:27:13.737Z,101975.98
2019-04-20T16:29:45.077Z,101977.69
2019-04-20T16:32:16.501Z,101977.91
2019-04-20T16:34:48.597Z,101972.22
2019-04-20T16:37:20.240Z,101972.48
2019-04-20T16:42:18.540Z,101975.16
2019-04-20T16:44:49.724Z,101974.53
2019-04-20T16:47:22.000Z,101974.39
2019-04-20T16:49:53.325Z,101977.77
2019-04-20T16:52:25.136Z,101973.98
2019-04-20T16:54:57.626Z,101968.39
2019-04-20T16:57:29.856Z,101972.77
2019-04-20T17:00:03.103Z,101965.42
2019-04-20T17:02:34.546Z,101968.30
2019-04-20T17:05:07.276Z,101968.38
2019-04-20T17:07:42.881Z,101963.28
2019-04-20T17:10:16.015Z,101968.13
2019-04-20T17:12:48.048Z,101964.72
2019-04-20T17:15:21.467Z,101959.98
2019-04-20T17:17:53.819Z,101971.14
2019-04-20T17:20:28.982Z,101967.75
2019-04-20T17:23:05.569Z,101967.44
2019-04-20T17:25:35.163Z,101972.09
2019-04-20T17:28:35.142Z,101982.89
2019-04-20T17:31:19.958Z,101973.89
2019-04-20T17:34:04.685Z,101975.90
2019-04-20T17:36:30.931Z,101977.88
2019-04-20T17:39:06.754Z,101966.62
2019-04-20T17:41:59.283Z,101968.22
2019-04-20T17:44:26.534Z,101974.83
2019-04-20T17:46:52.136Z,101970.83
2019-04-20T17:49:28.119Z,101972.00
2019-04-20T17:52:12.240Z,101971.71
2019-04-20T17:54:27.874Z,101976.17
2019-04-20T17:57:00.272Z,101974.55
2019-04-20T17:59:34.483Z,101967.64
2019-04-20T18:03:00.636Z,101969.66
2019-04-20T18:06:08.309Z,101978.00
2019-04-20T18:08:39.482Z,101974.02
2019-04-20T18:10:58.574Z,101975.53
2019-04-20T18:13:27.615Z,101969.58
2019-04-20T18:16:22.435Z,101981.55
2019-04-20T18:19:07.739Z,101972.95
2019-04-20T18:21:40.138Z,101985.08
2019-04-20T18:24:15.786Z,101977.83
2019-04-20T18:26:57.655Z,101980.61
2019-04-20T18:29:37.272Z,101988.35
2019-04-20T18:32:07.730Z,101986.68
2019-04-20T18:34:57.249Z,101982.19
2019-04-20T18:37:25.710Z,101979.37
2019-04-20T18:40:03.925Z,101982.43
2019-04-20T18:42:36.780Z,101988.88
2019-04-20T18:45:21.656Z,101983.23
2019-04-20T18:47:56.332Z,101986.16
2019-04-20T18:50:19.480Z,101983.80
2019-04-20T18:52:43.639Z,101988.50
2019-04-20T18:55:23.500Z,101988.05
2019-04-20T18:57:49.038Z,101988.64
2019-04-20T19:00:26.165Z,101989.22
2019-04-20T19:02:57.763Z,101979.56
2019-04-20T19:05:27.883Z,101993.11
2019-04-20T19:08:13.283Z,101991.34
2019-04-20T19:11:00.041Z,101993.87
2019-04-20T19:13:53.352Z,101992.08
2019-04-20T19:16:59.741Z,102001.22
2019-04-20T19:19:33.378Z,102002.34
2019-04-20T19:21:56.254Z,102007.39
2019-04-20T19:24:29.707Z,102004.66
2019-04-20T19:27:06.639Z,102013.39
2019-04-20T19:29:48.820Z,102006.45
2019-04-20T19:32:24.967Z,102011.29
2019-04-20T19:34:54.917Z,102011.03
2019-04-20T19:37:24.255Z,102012.92
2019-04-20T19:40:02.867Z,102007.19
2019-04-20T19:42:34.678Z,102014.13
2019-04-20T19:45:10.149Z,102016.57
2019-04-20T19:47:42.952Z,102017.85
2019-04-20T19:50:31.300Z,102023.08
2019-04-20T19:52:57.820Z,102025.25
2019-04-20T19:55:25.898Z,102019.97
2019-04-20T19:57:56.615Z,102020.19
2019-04-20T20:00:14.690Z,102014.86
2019-04-20T20:02:46.076Z,102018.72
2019-04-20T20:05:19.490Z,102024.59
2019-04-20T20:07:56.509Z,102030.36
2019-04-20T20:10:30.308Z,102029.03
2019-04-20T20:13:00.371Z,102017.02
2019-04-20T20:15:34.049Z,102021.27
2019-04-20T20:18:23.134Z,102017.84
2019-04-20T20:20:59.570Z,102022.72
2019-04-20T20:23:27.948Z,102020.43
2019-04-20T20:26:05.357Z,102023.94
2019-04-20T20:28:57.799Z,102015.80
2019-04-20T20:31:28.250Z,102022.33
2019-04-20T20:34:10.912Z,102022.33
2019-04-20T20:36:53.928Z,102022.20
2019-04-20T20:39:24.138Z,102025.23
2019-04-20T20:42:06.395Z,102019.77
2019-04-20T20:44:37.806Z,102016.30
2019-04-20T20:47:34.143Z,102017.73
2019-04-20T20:50:21.987Z,102019.66
2019-04-20T20:52:47.018Z,102021.26
2019-04-20T20:55:19.478Z,102025.63
2019-04-20T20:57:56.367Z,102030.08
2019-04-20T21:00:38.825Z,102026.81
2019-04-20T21:03:02.755Z,102029.94
2019-04-20T21:05:45.356Z,102033.72
2019-04-20T21:08:19.689Z,102029.87
2019-04-20T21:11:15.208Z,102031.62
2019-04-20T21:13:45.145Z,102033.69
2019-04-20T21:16:19.716Z,102026.63
2019-04-20T21:18:59.847Z,102031.39
2019-04-20T21:21:36.066Z,102028.30
2019-04-20T21:24:03.888Z,102029.25
2019-04-20T21:26:35.747Z,102030.26
2019-04-20T21:29:03.767Z,102028.66
2019-04-20T21:31:36.491Z,102024.34
2019-04-20T21:34:13.185Z,102022.34
2019-04-20T21:36:41.093Z,102023.98
2019-04-20T21:39:20.324Z,102020.55
2019-04-20T21:41:54.848Z,102023.42
2019-04-20T21:44:25.211Z,102022.66
2019-04-20T21:46:54.954Z,102020.27
2019-04-20T21:49:39.731Z,102019.06
2019-04-20T21:52:03.520Z,102023.50
2019-04-20T21:54:34.186Z,102021.86
2019-04-20T21:57:09.525Z,102025.03
2019-04-20T21:59:44.665Z,102021.78
2019-04-20T22:02:20.797Z,102018.61
2019-04-20T22:04:45.285Z,102019.86
2019-04-20T22:07:16.523Z,102014.09
2019-04-20T22:09:52.776Z,102007.52
2019-04-20T22:12:20.435Z,102010.55
2019-04-20T22:14:58.788Z,102016.53
2019-04-20T22:17:30.965Z,102014.49
2019-04-20T22:20:12.129Z,102018.34
2019-04-20T22:22:50.928Z,102017.72
2019-04-20T22:25:28.293Z,102013.60
2019-04-20T22:27:40.452Z,102016.40
2019-04-20T22:30:12.443Z,102010.21
2019-04-20T22:32:46.975Z,102010.77
2019-04-20T22:35:18.812Z,102005.47
2019-04-20T22:38:01.123Z,102012.02
2019-04-20T22:40:32.090Z,102007.81
2019-04-20T22:43:02.029Z,102003.27
2019-04-20T22:45:34.235Z,102008.92
2019-04-20T22:48:09.037Z,101998.89
2019-04-20T22:50:50.948Z,101999.80
2019-04-20T22:53:22.685Z,101995.45
2019-04-20T22:56:11.063Z,102001.76
2019-04-20T22:58:33.580Z,102000.51
2019-04-20T23:00:57.865Z,101998.88
2019-04-20T23:03:25.160Z,101995.47
2019-04-20T23:05:56.540Z,101993.36
2019-04-20T23:08:28.753Z,101996.59
2019-04-20T23:11:00.543Z,101989.59
2019-04-20T23:13:36.914Z,101984.03
2019-04-20T23:16:07.487Z,101980.16
2019-04-20T23:18:40.296Z,101983.66
2019-04-20T23:21:15.414Z,101976.58
2019-04-20T23:23:43.926Z,101970.14
2019-04-20T23:26:24.286Z,101968.55
2019-04-20T23:28:52.528Z,101970.08
2019-04-20T23:31:25.205Z,101966.03
2019-04-20T23:33:56.011Z,101961.14
2019-04-20T23:36:36.567Z,101962.67
2019-04-20T23:39:02.936Z,101955.80
2019-04-20T23:41:33.435Z,101952.48
2019-04-20T23:44:23.119Z,101951.61
2019-04-20T23:47:21.866Z,101947.19
2019-04-20T23:50:12.084Z,101946.05
2019-04-20T23:52:49.346Z,101945.20
2019-04-20T23:55:04.948Z,101947.91
2019-04-20T23:57:33.673Z,101943.44
